Time;durP1;ratioP1;P1;durP2;ratioP2;P2;SDS_P1;SDS_P2;PMS_P1;PMS_P2;Temp;Humidity;BMP_temperature;BMP_pressure;BME280_temperature;BME280_humidity;BME280_pressure;Samples;Min_cycle;Max_cycle;Signal;HPM_P1;HPM_P2
2022/11/16 00:01:29;;;;;;;13.90;9.60;;;16.50;66.80;;;;;;5026233;28;20439;-59
2022/11/16 00:03:58;;;;;;;8.70;7.80;;;16.50;67.00;;;;;;5029757;28;20483;-59
2022/11/16 00:06:24;;;;;;;12.03;9.47;;;16.50;67.10;;;;;;5024631;28;20548;-59
2022/11/16 00:11:40;;;;;;;9.77;8.13;;;16.50;66.40;;;;;;5028022;28;20458;-59
2022/11/16 00:14:06;;;;;;;13.23;8.17;;;16.30;67.00;;;;;;5030070;28;20483;-59
2022/11/16 00:16:32;;;;;;;11.63;8.97;;;16.30;67.50;;;;;;5031252;28;20809;-59
2022/11/16 00:19:02;;;;;;;11.53;8.70;;;16.30;67.60;;;;;;5029804;28;20518;-59
2022/11/16 00:21:28;;;;;;;13.47;8.40;;;16.40;67.40;;;;;;5028131;28;20479;-59
2022/11/16 00:23:54;;;;;;;8.33;7.53;;;16.40;67.40;;;;;;5026213;28;20589;-59
2022/11/16 00:26:20;;;;;;;8.33;7.63;;;16.40;67.10;;;;;;5025965;28;20493;-59
2022/11/16 00:28:46;;;;;;;9.43;8.10;;;16.30;68.60;;;;;;5024447;28;20193;-59
2022/11/16 00:31:12;;;;;;;8.67;5.90;;;16.40;68.00;;;;;;5027709;28;20474;-59
2022/11/16 00:33:38;;;;;;;9.00;6.90;;;16.30;68.20;;;;;;5026814;28;20432;-59
2022/11/16 00:36:07;;;;;;;13.20;6.80;;;16.20;68.30;;;;;;5031007;28;20840;-59
2022/11/16 00:38:33;;;;;;;8.80;6.13;;;16.10;68.70;;;;;;5028906;28;20470;-59
2022/11/16 00:40:59;;;;;;;8.27;6.47;;;16.20;68.70;;;;;;5031336;28;20443;-59
2022/11/16 00:43:25;;;;;;;7.63;6.70;;;16.20;68.40;;;;;;5024736;28;20931;-59
2022/11/16 00:45:50;;;;;;;7.53;6.13;;;16.30;68.30;;;;;;5023491;28;20189;-59
2022/11/16 00:48:16;;;;;;;7.90;6.50;;;16.30;68.90;;;;;;5021818;28;20197;-59
2022/11/16 00:50:44;;;;;;;10.00;6.37;;;16.40;68.10;;;;;;5026634;28;20197;-59
2022/11/16 00:53:13;;;;;;;7.70;5.70;;;16.30;67.70;;;;;;5026816;28;20606;-59
2022/11/16 00:55:39;;;;;;;8.60;6.20;;;16.10;67.60;;;;;;5028456;28;20479;-59
2022/11/16 00:58:04;;;;;;;6.80;5.30;;;16.00;68.10;;;;;;5025059;28;20436;-59
2022/11/16 01:00:30;;;;;;;6.20;5.30;;;16.00;68.20;;;;;;5028009;28;21186;-59
2022/11/16 01:02:56;;;;;;;7.90;6.07;;;16.00;67.70;;;;;;5024914;28;20201;-59
2022/11/16 01:05:22;;;;;;;7.30;5.50;;;16.00;67.70;;;;;;5023541;28;20193;-59
2022/11/16 01:07:48;;;;;;;7.40;4.87;;;16.10;67.80;;;;;;5026167;28;20247;-59
2022/11/16 01:10:17;;;;;;;6.40;5.60;;;16.10;67.70;;;;;;5027606;28;20435;-59
2022/11/16 01:12:44;;;;;;;5.90;5.40;;;16.10;67.50;;;;;;5028347;28;20439;-59
2022/11/16 01:15:10;;;;;;;7.03;5.53;;;16.00;67.90;;;;;;5029938;28;20570;-59
2022/11/16 01:17:39;;;;;;;6.60;5.20;;;15.80;68.20;;;;;;5027183;28;20518;-59
2022/11/16 01:20:07;;;;;;;6.20;5.27;;;15.70;69.00;;;;;;5020790;28;20212;-59
2022/11/16 01:22:38;;;;;;;8.60;4.80;;;15.80;68.80;;;;;;5023329;28;20475;-59
2022/11/16 01:25:05;;;;;;;4.70;4.30;;;15.90;68.20;;;;;;5022448;28;20862;-59
2022/11/16 01:27:30;;;;;;;5.60;4.90;;;15.90;67.50;;;;;;5027572;28;20454;-59
2022/11/16 01:29:56;;;;;;;9.07;5.40;;;15.80;67.40;;;;;;5020050;28;20447;-59
2022/11/16 01:32:22;;;;;;;4.50;4.10;;;15.60;68.50;;;;;;5031229;28;20189;-59
2022/11/16 01:34:48;;;;;;;5.53;4.90;;;15.60;68.60;;;;;;5028619;28;20310;-59
2022/11/16 01:37:14;;;;;;;5.00;4.60;;;15.50;69.00;;;;;;5029376;28;20935;-59
2022/11/16 01:39:40;;;;;;;4.87;4.37;;;15.50;69.30;;;;;;5029106;28;20523;-59
2022/11/16 01:42:05;;;;;;;6.13;4.10;;;15.40;69.80;;;;;;5030407;28;20539;-59
2022/11/16 01:44:31;;;;;;;5.30;4.80;;;15.40;70.00;;;;;;5019862;28;20194;-59
2022/11/16 01:47:06;;;;;;;6.13;4.43;;;15.20;70.50;;;;;;5027367;28;20197;-59
2022/11/16 01:49:36;;;;;;;5.00;4.50;;;15.00;71.50;;;;;;5028266;28;20197;-58
2022/11/16 01:52:07;;;;;;;5.20;4.63;;;15.00;72.30;;;;;;5027741;28;20910;-59
2022/11/16 01:54:37;;;;;;;5.60;4.37;;;15.00;71.80;;;;;;5023434;28;20488;-59
2022/11/16 01:57:08;;;;;;;7.50;4.60;;;15.00;72.10;;;;;;5024197;28;20943;-59
2022/11/16 01:59:34;;;;;;;5.03;4.00;;;14.90;72.40;;;;;;5026677;28;21657;-59
2022/11/16 02:02:00;;;;;;;5.70;4.13;;;14.80;72.70;;;;;;5021386;28;20451;-59
2022/11/16 02:04:25;;;;;;;4.50;4.03;;;14.60;74.00;;;;;;5026383;28;20197;-59
2022/11/16 02:07:10;;;;;;;5.07;3.97;;;14.70;74.00;;;;;;5030019;28;20454;-59
2022/11/16 02:10:17;;;;;;;4.70;4.30;;;15.00;73.50;;;;;;5029599;28;20193;-59
2022/11/16 02:12:56;;;;;;;4.30;3.90;;;15.10;72.20;;;;;;4990504;28;20538;-59
2022/11/16 02:15:46;;;;;;;6.20;5.03;;;15.10;71.50;;;;;;5027333;28;20519;-59
2022/11/16 02:18:34;;;;;;;8.53;4.60;;;15.20;72.00;;;;;;5025816;28;20791;-60
2022/11/16 02:21:09;;;;;;;4.73;4.30;;;15.10;72.50;;;;;;5022555;28;20452;-59
2022/11/16 02:23:43;;;;;;;5.90;4.30;;;15.10;72.10;;;;;;5019649;28;20452;-59
2022/11/16 02:26:42;;;;;;;5.63;4.90;;;15.00;72.20;;;;;;5027075;28;20479;-59
2022/11/16 02:29:32;;;;;;;6.67;5.03;;;14.90;73.00;;;;;;5023049;28;20463;-59
2022/11/16 02:32:27;;;;;;;6.03;5.40;;;14.70;73.80;;;;;;5018238;28;20476;-59
2022/11/16 02:35:09;;;;;;;5.30;4.30;;;14.80;73.80;;;;;;5017256;28;20545;-59
2022/11/16 02:37:39;;;;;;;5.40;4.90;;;14.80;73.80;;;;;;5027840;28;20459;-58
2022/11/16 02:40:09;;;;;;;5.73;4.90;;;15.00;73.30;;;;;;5026776;28;20470;-59
2022/11/16 02:42:58;;;;;;;5.40;4.60;;;15.00;72.30;;;;;;5031106;28;20442;-59
2022/11/16 02:45:28;;;;;;;7.03;5.80;;;14.80;73.10;;;;;;5018760;28;20460;-58
2022/11/16 02:48:00;;;;;;;10.07;5.40;;;15.00;72.90;;;;;;5027630;28;22164;-59
2022/11/16 02:50:26;;;;;;;6.73;5.63;;;15.00;72.50;;;;;;5026822;28;20443;-60
2022/11/16 02:52:51;;;;;;;5.40;4.73;;;15.00;72.90;;;;;;5021558;28;20444;-59
2022/11/16 02:55:17;;;;;;;5.30;4.80;;;15.20;72.50;;;;;;5027755;28;20479;-59
2022/11/16 02:57:57;;;;;;;6.53;4.70;;;15.40;71.60;;;;;;5025142;28;20235;-59
2022/11/16 03:00:30;;;;;;;6.53;5.10;;;15.50;70.80;;;;;;5025303;28;20197;-59
2022/11/16 03:03:08;;;;;;;6.80;5.03;;;15.50;70.30;;;;;;5032470;28;20515;-59
2022/11/16 03:06:01;;;;;;;5.57;4.97;;;15.60;70.00;;;;;;5030043;28;20584;-59
2022/11/16 03:08:33;;;;;;;5.57;4.93;;;15.70;69.70;;;;;;5027168;28;20448;-59
2022/11/16 03:13:57;;;;;;;5.47;4.63;;;15.70;70.00;;;;;;5025880;28;21206;-59
2022/11/16 03:16:31;;;;;;;4.73;4.23;;;15.50;69.90;;;;;;5031269;28;21347;-59
2022/11/16 03:18:58;;;;;;;5.90;5.30;;;15.20;71.30;;;;;;5027507;28;20456;-59
2022/11/16 03:21:42;;;;;;;5.70;5.20;;;15.10;72.50;;;;;;5027663;28;20472;-60
2022/11/16 03:24:09;;;;;;;6.80;5.50;;;15.10;72.70;;;;;;5029554;28;20448;-59
2022/11/16 03:27:18;;;;;;;5.83;5.33;;;15.40;71.80;;;;;;5030958;28;20435;-59
2022/11/16 03:30:00;;;;;;;5.30;4.80;;;15.40;71.20;;;;;;5029125;28;20452;-59
2022/11/16 03:32:43;;;;;;;5.23;4.50;;;15.30;71.30;;;;;;5031438;28;20463;-60
2022/11/16 03:35:18;;;;;;;5.63;4.30;;;15.10;72.30;;;;;;5022322;28;20487;-59
2022/11/16 03:37:46;;;;;;;5.90;3.43;;;15.20;72.50;;;;;;5028697;28;20554;-59
2022/11/16 03:40:13;;;;;;;4.87;3.67;;;15.10;72.40;;;;;;5031806;28;20447;-59
2022/11/16 03:42:40;;;;;;;3.60;3.30;;;15.00;73.60;;;;;;5032762;28;20873;-59
2022/11/16 03:45:06;;;;;;;4.00;3.27;;;15.00;73.70;;;;;;5032486;28;20436;-59
2022/11/16 03:47:32;;;;;;;3.70;2.87;;;15.00;73.90;;;;;;5029647;28;20443;-59
2022/11/16 03:49:57;;;;;;;3.00;2.80;;;15.00;73.80;;;;;;5031790;28;20444;-58
2022/11/16 03:52:23;;;;;;;6.23;3.27;;;15.10;73.40;;;;;;5032594;28;20283;-59
2022/11/16 03:54:49;;;;;;;3.47;2.33;;;15.20;73.10;;;;;;5029709;28;20260;-59
2022/11/16 03:57:17;;;;;;;4.43;2.67;;;15.20;72.90;;;;;;5030334;28;20197;-59
2022/11/16 03:59:43;;;;;;;3.33;3.00;;;15.00;73.80;;;;;;5032598;28;20189;-59
2022/11/16 04:02:09;;;;;;;3.47;3.17;;;14.80;75.00;;;;;;5030735;28;20446;-59
2022/11/16 04:29:13;;;;;;;6.30;4.63;;;15.50;72.30;;;;;;5030790;28;20439;-59
2022/11/16 04:39:56;;;;;;;5.93;5.40;;;15.90;71.30;;;;;;5032344;28;20501;-59
2022/11/16 04:42:21;;;;;;;5.30;4.80;;;15.90;70.90;;;;;;5026696;28;20939;-59
2022/11/16 04:47:31;;;;;;;5.30;4.80;;;15.70;70.90;;;;;;5027813;28;20274;-58
2022/11/16 04:49:57;;;;;;;7.03;6.30;;;15.70;71.90;;;;;;5027521;28;20931;-59
2022/11/16 04:52:22;;;;;;;8.00;6.13;;;15.80;71.50;;;;;;5027299;28;20212;-59
2022/11/16 04:54:48;;;;;;;5.60;5.10;;;15.80;71.20;;;;;;5030549;28;20316;-59
2022/11/16 04:57:14;;;;;;;4.93;4.53;;;15.90;70.90;;;;;;5025392;28;20189;-59
2022/11/16 04:59:39;;;;;;;5.13;4.70;;;16.00;70.50;;;;;;5023468;28;20645;-59
2022/11/16 05:02:07;;;;;;;5.90;5.30;;;16.10;71.10;;;;;;5026251;28;20193;-59
2022/11/16 05:04:38;;;;;;;9.23;7.53;;;16.10;70.10;;;;;;5024540;28;20558;-59
2022/11/16 05:07:09;;;;;;;14.83;13.43;;;16.20;70.00;;;;;;5028987;28;20527;-59
2022/11/16 05:09:41;;;;;;;15.80;14.30;;;16.20;69.60;;;;;;5021169;28;20693;-59
2022/11/16 05:12:13;;;;;;;9.10;8.33;;;16.20;70.00;;;;;;5029699;28;20444;-59
2022/11/16 05:14:39;;;;;;;7.13;6.53;;;16.20;70.00;;;;;;5029726;28;20484;-59
2022/11/16 05:17:05;;;;;;;6.10;5.30;;;16.30;69.90;;;;;;5023231;28;20458;-58
2022/11/16 05:22:15;;;;;;;5.13;4.60;;;16.30;69.70;;;;;;5025126;28;20597;-59
2022/11/16 05:24:40;;;;;;;5.10;4.70;;;16.30;69.70;;;;;;5028083;28;20436;-59
2022/11/16 05:27:12;;;;;;;5.97;4.50;;;16.30;69.60;;;;;;5027957;28;20193;-59
2022/11/16 05:29:37;;;;;;;4.97;4.57;;;16.20;69.80;;;;;;5027420;28;20224;-59
2022/11/16 05:32:05;;;;;;;3.97;3.67;;;16.00;70.30;;;;;;5029421;28;20468;-59
2022/11/16 05:34:30;;;;;;;5.30;4.80;;;16.00;70.80;;;;;;5026867;28;20629;-58
2022/11/16 05:36:57;;;;;;;4.73;4.23;;;16.00;70.70;;;;;;5025984;28;20447;-59
2022/11/16 05:39:22;;;;;;;4.73;4.33;;;16.00;70.90;;;;;;5026927;28;20192;-59
2022/11/16 05:41:48;;;;;;;4.73;4.33;;;16.00;70.90;;;;;;5026055;28;20444;-59
2022/11/16 05:44:15;;;;;;;7.13;5.20;;;16.10;70.40;;;;;;5027072;28;20444;-59
2022/11/16 05:46:42;;;;;;;5.70;4.10;;;16.10;70.20;;;;;;5027993;28;20451;-59
2022/11/16 05:49:08;;;;;;;5.50;5.00;;;16.10;70.10;;;;;;5029717;28;20942;-59
2022/11/16 05:51:35;;;;;;;6.43;4.80;;;16.10;69.80;;;;;;5027914;28;20451;-58
2022/11/16 05:54:02;;;;;;;4.83;4.13;;;16.20;69.60;;;;;;5028682;28;20583;-58
2022/11/16 05:56:28;;;;;;;5.47;4.97;;;16.20;69.30;;;;;;5031843;28;20436;-58
2022/11/16 05:58:54;;;;;;;5.70;5.20;;;16.20;69.20;;;;;;5031214;28;20452;-59
2022/11/16 06:01:20;;;;;;;6.03;5.43;;;16.20;69.40;;;;;;5031743;28;20470;-59
2022/11/16 06:03:45;;;;;;;6.20;5.13;;;16.20;69.50;;;;;;5027520;28;20530;-59
2022/11/16 06:06:11;;;;;;;4.90;4.40;;;16.20;69.50;;;;;;5019900;28;20196;-59
2022/11/16 06:08:37;;;;;;;5.67;5.10;;;16.10;69.60;;;;;;5031506;28;20707;-59
2022/11/16 06:11:04;;;;;;;6.30;5.17;;;16.10;69.90;;;;;;5027895;28;20557;-59
2022/11/16 06:13:30;;;;;;;5.27;4.77;;;16.00;70.00;;;;;;5029600;28;20705;-59
2022/11/16 06:15:56;;;;;;;12.60;4.87;;;16.10;70.00;;;;;;5028138;28;20518;-58
2022/11/16 06:18:22;;;;;;;11.50;4.90;;;16.10;70.00;;;;;;5030917;28;20432;-58
2022/11/16 06:20:48;;;;;;;8.17;5.20;;;16.20;70.90;;;;;;5027225;28;20665;-59
2022/11/16 06:23:13;;;;;;;7.77;4.70;;;16.20;71.30;;;;;;5026205;28;20442;-59
2022/11/16 06:25:39;;;;;;;9.00;3.77;;;16.30;71.20;;;;;;5023614;28;20189;-57
2022/11/16 06:28:05;;;;;;;4.87;3.67;;;16.50;71.00;;;;;;5026293;28;20197;-58
2022/11/16 06:30:31;;;;;;;5.00;4.20;;;16.60;70.60;;;;;;5023440;28;20941;-59
2022/11/16 06:32:57;;;;;;;4.10;3.70;;;16.70;69.50;;;;;;5026726;28;20228;-58
2022/11/16 06:35:23;;;;;;;4.40;4.00;;;16.80;68.80;;;;;;5018695;28;20595;-58
2022/11/16 06:37:48;;;;;;;3.83;3.40;;;16.90;68.30;;;;;;5027328;28;20189;-59
2022/11/16 06:40:14;;;;;;;7.57;4.10;;;16.90;68.00;;;;;;5026524;28;20597;-58
2022/11/16 06:42:40;;;;;;;3.80;3.50;;;17.00;67.50;;;;;;5030934;28;20708;-58
2022/11/16 06:45:07;;;;;;;4.40;3.90;;;17.00;66.70;;;;;;5029031;28;20201;-58
2022/11/16 06:47:33;;;;;;;4.57;3.80;;;17.00;66.70;;;;;;5038768;28;20475;-58
2022/11/16 06:49:59;;;;;;;4.43;4.03;;;17.10;66.80;;;;;;5027644;28;21019;-58
2022/11/16 06:52:25;;;;;;;4.77;3.87;;;17.10;66.80;;;;;;5028919;28;20190;-58
2022/11/16 06:54:51;;;;;;;5.00;4.37;;;17.10;66.60;;;;;;5028121;28;20495;-59
2022/11/16 06:57:16;;;;;;;4.33;3.93;;;17.20;66.40;;;;;;5031353;28;20201;-58
2022/11/16 06:59:42;;;;;;;3.90;3.60;;;17.20;66.00;;;;;;5028332;28;20196;-59
2022/11/16 07:02:09;;;;;;;4.80;4.30;;;17.10;66.00;;;;;;5023874;28;20280;-58
2022/11/16 07:04:35;;;;;;;5.93;3.83;;;17.20;66.40;;;;;;5026974;28;20645;-58
2022/11/16 07:07:00;;;;;;;4.03;3.63;;;17.20;66.10;;;;;;5029525;28;20444;-59
2022/11/16 07:09:26;;;;;;;4.97;4.43;;;17.20;66.10;;;;;;5029076;28;20193;-59
2022/11/16 07:11:52;;;;;;;4.80;4.30;;;17.30;66.00;;;;;;5028142;28;20196;-58
2022/11/16 07:14:17;;;;;;;5.00;4.27;;;17.30;66.10;;;;;;5028058;28;20347;-59
2022/11/16 07:16:43;;;;;;;5.10;4.17;;;17.30;65.90;;;;;;5031109;28;20559;-59
2022/11/16 07:19:09;;;;;;;5.10;3.70;;;17.40;65.80;;;;;;5028587;28;20235;-58
2022/11/16 07:21:35;;;;;;;4.80;4.40;;;17.40;65.40;;;;;;5028807;28;20715;-58
2022/11/16 07:24:01;;;;;;;5.93;4.73;;;17.40;65.10;;;;;;5023943;28;20483;-59
2022/11/16 07:26:29;;;;;;;6.30;5.20;;;17.50;65.20;;;;;;5035536;28;20943;-59
2022/11/16 07:28:57;;;;;;;6.37;5.70;;;17.50;65.00;;;;;;5023079;28;20193;-59
2022/11/16 07:31:22;;;;;;;9.23;6.10;;;17.50;65.00;;;;;;5016580;28;20858;-59
2022/11/16 07:33:48;;;;;;;5.90;5.30;;;17.50;64.90;;;;;;5022097;28;20474;-55
2022/11/16 07:36:14;;;;;;;5.53;5.03;;;17.40;65.00;;;;;;5022231;28;20212;-58
2022/11/16 07:38:40;;;;;;;6.13;5.57;;;17.40;65.30;;;;;;5025473;28;20247;-57
2022/11/16 07:41:12;;;;;;;5.87;3.97;;;17.40;65.40;;;;;;5026595;28;20200;-59
2022/11/16 07:43:39;;;;;;;3.30;3.00;;;17.20;65.80;;;;;;5022178;28;22080;-59
2022/11/16 07:46:09;;;;;;;3.93;2.43;;;17.00;66.20;;;;;;5029637;28;20833;-58
2022/11/16 07:48:35;;;;;;;4.90;2.50;;;16.90;66.70;;;;;;5025109;28;20444;-58
2022/11/16 07:51:02;;;;;;;3.30;2.33;;;16.80;66.70;;;;;;5028018;28;20498;-58
2022/11/16 07:53:29;;;;;;;3.57;2.03;;;16.60;67.20;;;;;;5025689;28;20562;-58
2022/11/16 07:55:54;;;;;;;2.50;2.30;;;16.60;67.40;;;;;;5027890;28;20480;-58
2022/11/16 07:58:20;;;;;;;2.70;2.37;;;16.60;67.30;;;;;;5024735;28;20452;-58
2022/11/16 08:00:46;;;;;;;2.17;1.97;;;16.80;67.20;;;;;;5020587;28;20198;-58
2022/11/16 08:03:11;;;;;;;3.83;2.40;;;16.90;67.20;;;;;;5027198;28;20255;-58
2022/11/16 08:05:37;;;;;;;3.50;2.27;;;16.90;67.50;;;;;;5026528;28;20609;-59
2022/11/16 08:08:03;;;;;;;3.63;1.93;;;17.00;67.10;;;;;;5026506;28;20197;-58
2022/11/16 08:10:29;;;;;;;2.47;2.03;;;17.00;67.20;;;;;;5027744;28;20197;-59
2022/11/16 08:12:56;;;;;;;3.23;2.23;;;17.10;67.30;;;;;;5028275;28;20197;-59
2022/11/16 08:15:22;;;;;;;3.70;2.40;;;17.20;67.30;;;;;;5031333;28;20487;-59
2022/11/16 08:17:47;;;;;;;3.20;2.17;;;17.20;67.10;;;;;;5031147;28;20439;-58
2022/11/16 08:20:14;;;;;;;2.50;2.30;;;17.10;66.20;;;;;;5029776;28;20447;-59
2022/11/16 08:22:39;;;;;;;2.33;2.10;;;17.10;66.00;;;;;;5024858;28;20225;-59
2022/11/16 08:25:06;;;;;;;4.50;2.10;;;17.20;65.90;;;;;;5026427;28;20852;-59
2022/11/16 08:27:32;;;;;;;3.67;2.40;;;17.30;65.60;;;;;;5031561;28;20193;-59
2022/11/16 08:29:57;;;;;;;4.40;2.23;;;17.30;65.40;;;;;;5031146;28;20473;-59
2022/11/16 08:32:23;;;;;;;3.37;2.13;;;17.40;65.30;;;;;;5022225;28;20436;-59
2022/11/16 08:34:49;;;;;;;4.87;2.10;;;17.40;65.00;;;;;;5030960;28;20257;-59
2022/11/16 08:37:15;;;;;;;2.60;1.70;;;17.50;64.80;;;;;;5026121;28;20606;-59
2022/11/16 08:39:40;;;;;;;4.57;1.70;;;17.60;64.60;;;;;;5027711;28;20205;-59
2022/11/16 08:42:06;;;;;;;2.97;1.93;;;17.60;64.60;;;;;;5031901;28;20243;-59
2022/11/16 08:44:31;;;;;;;2.63;1.90;;;17.60;64.40;;;;;;5023123;28;20199;-59
2022/11/16 08:46:57;;;;;;;2.63;1.60;;;17.60;64.20;;;;;;5027679;28;20637;-59
2022/11/16 08:49:22;;;;;;;4.83;1.53;;;17.70;63.80;;;;;;5027954;28;20232;-59
2022/11/16 08:51:48;;;;;;;1.90;1.60;;;17.80;64.00;;;;;;5027650;28;20189;-59
2022/11/16 08:54:14;;;;;;;3.27;1.57;;;17.90;63.90;;;;;;5030605;28;20209;-60
2022/11/16 08:56:39;;;;;;;1.77;1.37;;;17.90;63.30;;;;;;5027003;28;20204;-60
2022/11/16 08:59:05;;;;;;;1.60;1.50;;;18.00;62.60;;;;;;5031523;28;20199;-60
2022/11/16 09:01:31;;;;;;;1.47;1.13;;;18.00;62.20;;;;;;5024826;28;20197;-60
2022/11/16 09:03:57;;;;;;;2.90;1.53;;;18.00;62.00;;;;;;5029607;28;20276;-60
2022/11/16 09:06:25;;;;;;;2.77;1.80;;;18.10;61.90;;;;;;5023704;28;20444;-60
2022/11/16 09:08:51;;;;;;;2.83;1.80;;;18.20;61.70;;;;;;5039083;28;20444;-60
2022/11/16 09:11:19;;;;;;;3.63;1.67;;;18.30;61.70;;;;;;5031022;28;20502;-61
2022/11/16 09:13:46;;;;;;;2.93;1.80;;;18.30;61.50;;;;;;5027306;28;20201;-60
2022/11/16 09:16:15;;;;;;;3.73;1.73;;;18.30;61.10;;;;;;5030456;28;20448;-60
2022/11/16 09:18:41;;;;;;;2.70;1.33;;;18.30;60.50;;;;;;5028878;28;20460;-60
2022/11/16 09:21:07;;;;;;;2.10;1.67;;;18.40;60.30;;;;;;5030961;28;20588;-60
2022/11/16 09:23:32;;;;;;;3.13;2.00;;;18.50;59.90;;;;;;5026345;28;20982;-60
2022/11/16 09:26:03;;;;;;;3.23;2.10;;;18.50;59.80;;;;;;5031831;28;20567;-61
2022/11/16 09:28:29;;;;;;;5.40;2.17;;;18.60;59.80;;;;;;5030975;28;20711;-60
2022/11/16 09:30:59;;;;;;;3.93;2.17;;;18.50;60.30;;;;;;5030229;28;20448;-60
2022/11/16 09:33:29;;;;;;;2.47;2.10;;;18.60;60.40;;;;;;5023708;28;20452;-60
2022/11/16 09:36:00;;;;;;;5.30;2.10;;;18.60;60.50;;;;;;5030014;28;20479;-61
2022/11/16 09:38:25;;;;;;;2.80;1.50;;;18.80;61.20;;;;;;5029946;28;20432;-60
2022/11/16 09:40:51;;;;;;;4.07;1.50;;;19.00;60.30;;;;;;5030198;28;21049;-60
2022/11/16 09:43:49;;;;;;;2.93;1.83;;;19.10;58.90;;;;;;5039723;28;20193;-61
2022/11/16 09:46:46;;;;;;;1.83;1.50;;;19.30;58.90;;;;;;5031688;28;20644;-61
2022/11/16 09:49:31;;;;;;;4.67;1.87;;;19.30;58.60;;;;;;5023871;28;20976;-60
2022/11/16 09:52:01;;;;;;;3.43;1.73;;;19.40;58.80;;;;;;5024949;28;20983;-57
2022/11/16 09:54:32;;;;;;;2.13;1.57;;;19.50;58.50;;;;;;5014098;28;20483;-60
2022/11/16 09:57:03;;;;;;;2.80;1.60;;;19.60;57.30;;;;;;5027490;28;20464;-60
2022/11/16 09:59:39;;;;;;;3.37;1.33;;;19.70;57.20;;;;;;5024103;28;20447;-59
2022/11/16 10:02:35;;;;;;;1.70;1.50;;;19.80;56.70;;;;;;5025091;28;20490;-60
2022/11/16 10:05:23;;;;;;;2.00;1.47;;;19.70;56.90;;;;;;5023878;28;20944;-57
2022/11/16 10:08:03;;;;;;;3.63;1.60;;;19.60;57.30;;;;;;5027246;28;20958;-58
2022/11/16 10:10:38;;;;;;;8.67;1.77;;;19.50;57.40;;;;;;5024229;28;20443;-59
2022/11/16 10:13:39;;;;;;;2.53;1.30;;;19.40;57.40;;;;;;5026266;28;20491;-59
2022/11/16 10:16:30;;;;;;;1.63;1.27;;;19.40;57.20;;;;;;5024696;28;20487;-59
2022/11/16 10:19:27;;;;;;;1.73;1.10;;;19.40;57.50;;;;;;5020617;28;20459;-59
2022/11/16 10:22:01;;;;;;;3.13;1.40;;;19.40;57.40;;;;;;5023108;28;20865;-59
2022/11/16 10:24:59;;;;;;;1.47;1.37;;;19.40;57.20;;;;;;5005444;28;20455;-59
2022/11/16 10:27:56;;;;;;;3.10;1.97;;;19.30;57.20;;;;;;5021460;28;20510;-59
2022/11/16 10:30:22;;;;;;;8.00;3.10;;;19.30;57.80;;;;;;5024075;28;20459;-59
2022/11/16 10:32:58;;;;;;;2.77;2.57;;;19.30;58.80;;;;;;5029366;28;20526;-59
2022/11/16 10:35:32;;;;;;;3.83;1.93;;;19.30;58.70;;;;;;5028632;28;20553;-59
2022/11/16 10:38:01;;;;;;;4.27;2.37;;;19.10;58.40;;;;;;5028454;28;20923;-60
2022/11/16 10:40:34;;;;;;;4.50;1.63;;;19.20;58.80;;;;;;5021113;28;20497;-59
2022/11/16 10:43:23;;;;;;;2.47;1.53;;;19.30;58.80;;;;;;5023659;28;21026;-59
2022/11/16 10:46:11;;;;;;;1.60;1.40;;;19.50;57.10;;;;;;5034796;28;20463;-59
2022/11/16 10:49:01;;;;;;;1.90;1.57;;;19.60;56.40;;;;;;5037106;28;20458;-59
2022/11/16 10:51:26;;;;;;;1.83;1.37;;;19.70;57.20;;;;;;5028463;28;20455;-59
2022/11/16 10:53:53;;;;;;;3.27;2.20;;;19.80;57.00;;;;;;5027489;28;20444;-59
2022/11/16 10:56:36;;;;;;;7.90;3.20;;;19.80;57.30;;;;;;5029146;28;20201;-59
2022/11/16 10:59:04;;;;;;;4.10;1.80;;;20.00;56.90;;;;;;5023191;28;20455;-57
2022/11/16 11:01:32;;;;;;;3.60;1.80;;;20.30;56.80;;;;;;5029992;28;20927;-58
2022/11/16 11:04:30;;;;;;;2.13;1.60;;;20.60;55.90;;;;;;5028701;28;20862;-57
2022/11/16 11:06:56;;;;;;;5.43;1.40;;;20.50;53.60;;;;;;5029438;28;20490;-57
2022/11/16 11:09:34;;;;;;;5.83;1.53;;;20.50;54.20;;;;;;5026927;28;20483;-57
2022/11/16 11:15:21;;;;;;;1.57;1.20;;;20.30;54.60;;;;;;5022631;28;21021;-57
2022/11/16 11:17:48;;;;;;;1.50;1.40;;;20.40;53.70;;;;;;5021424;28;20951;-57
2022/11/16 11:20:13;;;;;;;2.30;1.40;;;20.50;54.40;;;;;;5027302;28;20443;-58
2022/11/16 11:23:22;;;;;;;1.40;1.30;;;20.30;54.80;;;;;;5030046;28;20975;-58
2022/11/16 11:25:56;;;;;;;2.60;1.43;;;20.40;54.60;;;;;;5017416;28;20251;-57
2022/11/16 11:28:28;;;;;;;2.03;1.50;;;20.60;54.00;;;;;;5026101;28;20448;-58
2022/11/16 11:31:24;;;;;;;1.37;1.27;;;20.50;52.80;;;;;;5026639;28;20443;-58
2022/11/16 11:34:13;;;;;;;3.17;1.57;;;20.40;53.10;;;;;;5028853;28;20477;-60
2022/11/16 11:36:44;;;;;;;1.50;1.30;;;20.40;52.20;;;;;;5018208;28;20448;-57
2022/11/16 11:39:30;;;;;;;6.13;2.87;;;20.50;52.40;;;;;;5024406;28;20451;-57
2022/11/16 11:42:13;;;;;;;3.53;1.70;;;20.50;53.00;;;;;;5028110;28;20451;-58
2022/11/16 11:44:42;;;;;;;2.77;1.73;;;20.50;53.60;;;;;;5026653;28;20443;-58
2022/11/16 11:47:22;;;;;;;2.07;1.77;;;20.80;53.40;;;;;;5029887;28;20439;-58
2022/11/16 11:50:15;;;;;;;2.57;1.70;;;20.90;53.00;;;;;;5031103;28;20483;-58
2022/11/16 11:53:04;;;;;;;2.53;1.70;;;21.10;52.80;;;;;;5033998;28;20448;-58
2022/11/16 11:55:30;;;;;;;1.50;1.40;;;21.10;52.80;;;;;;5032777;28;20494;-58
2022/11/16 11:57:59;;;;;;;3.70;2.00;;;21.00;50.90;;;;;;5031907;28;20428;-58
2022/11/16 12:00:25;;;;;;;3.67;1.20;;;21.00;52.50;;;;;;5025383;28;20444;-58
2022/11/16 12:03:23;;;;;;;1.23;1.13;;;21.30;51.80;;;;;;5031842;28;20454;-57
2022/11/16 12:06:10;;;;;;;2.73;1.20;;;21.40;51.00;;;;;;5031406;28;20288;-58
2022/11/16 12:09:01;;;;;;;2.20;1.30;;;21.40;51.70;;;;;;5032690;28;20458;-58
2022/11/16 12:11:45;;;;;;;2.70;1.03;;;21.40;52.80;;;;;;5030432;28;20456;-58
2022/11/16 12:14:29;;;;;;;4.03;1.50;;;21.10;50.90;;;;;;5021770;28;20475;-58
2022/11/16 12:17:35;;;;;;;1.23;1.13;;;21.10;51.00;;;;;;5032804;28;20495;-58
2022/11/16 12:20:38;;;;;;;2.57;1.50;;;21.30;51.40;;;;;;5008990;28;20451;-59
2022/11/16 12:23:28;;;;;;;2.10;1.50;;;21.50;50.60;;;;;;5030257;28;20471;-58
2022/11/16 12:26:10;;;;;;;2.00;1.20;;;21.50;51.90;;;;;;5029354;28;20513;-58
2022/11/16 12:28:36;;;;;;;1.97;1.77;;;21.50;51.50;;;;;;5033535;28;20431;-58
2022/11/16 12:31:42;;;;;;;2.67;2.10;;;21.60;52.30;;;;;;5030928;28;20942;-57
2022/11/16 12:34:17;;;;;;;4.83;1.70;;;21.90;53.00;;;;;;5025666;28;20206;-58
2022/11/16 12:36:59;;;;;;;2.10;1.50;;;22.10;52.50;;;;;;5034652;28;20473;-58
2022/11/16 12:39:38;;;;;;;3.03;1.80;;;22.40;50.90;;;;;;5026318;28;20489;-58
2022/11/16 12:42:33;;;;;;;1.27;1.00;;;22.50;49.00;;;;;;5025701;28;20524;-58
2022/11/16 12:45:21;;;;;;;1.30;1.20;;;22.40;47.60;;;;;;5031083;28;20483;-58
2022/11/16 12:48:32;;;;;;;2.60;1.10;;;22.30;47.40;;;;;;5027131;28;20962;-57
2022/11/16 12:51:22;;;;;;;1.93;1.20;;;22.10;47.70;;;;;;5044145;28;20463;-58
2022/11/16 12:54:06;;;;;;;4.13;1.37;;;22.00;48.50;;;;;;5028795;28;20435;-57
2022/11/16 12:56:52;;;;;;;1.90;1.67;;;21.90;49.50;;;;;;5029289;28;21025;-57
2022/11/16 12:59:17;;;;;;;6.57;3.47;;;21.80;49.70;;;;;;5019991;28;20451;-57
2022/11/16 13:02:02;;;;;;;3.60;3.03;;;21.80;49.80;;;;;;5021073;28;20456;-57
2022/11/16 13:04:39;;;;;;;4.50;2.87;;;21.70;50.60;;;;;;5029295;28;20228;-58
2022/11/16 13:07:23;;;;;;;3.97;1.73;;;21.60;51.00;;;;;;5026492;28;20542;-58
2022/11/16 13:09:56;;;;;;;2.53;1.03;;;21.60;51.30;;;;;;5029979;28;20444;-57
2022/11/16 13:12:23;;;;;;;2.00;1.67;;;21.50;50.40;;;;;;5031328;28;20440;-57
2022/11/16 13:14:52;;;;;;;4.23;1.70;;;21.40;50.80;;;;;;5030266;28;20483;-58
2022/11/16 13:17:24;;;;;;;1.97;1.43;;;21.30;51.00;;;;;;5024818;28;20447;-60
2022/11/16 13:20:14;;;;;;;3.50;3.10;;;21.30;51.00;;;;;;5025022;28;20462;-61
2022/11/16 13:22:52;;;;;;;4.67;2.33;;;21.30;51.10;;;;;;5020028;28;20557;-59
2022/11/16 13:25:30;;;;;;;4.00;2.20;;;21.20;51.40;;;;;;5032304;28;20791;-60
2022/11/16 13:28:05;;;;;;;2.17;1.97;;;21.20;51.50;;;;;;5031177;28;20463;-59
2022/11/16 13:30:49;;;;;;;3.20;1.23;;;21.10;51.70;;;;;;5026653;28;20443;-58
2022/11/16 13:33:43;;;;;;;1.43;1.17;;;21.10;51.90;;;;;;5031130;28;20452;-59
2022/11/16 13:36:38;;;;;;;1.17;1.00;;;21.10;51.70;;;;;;5030340;28;20586;-59
2022/11/16 13:39:06;;;;;;;1.10;0.90;;;21.00;51.10;;;;;;5046425;28;20600;-61
2022/11/16 13:41:35;;;;;;;1.97;1.30;;;20.90;50.70;;;;;;5037133;28;20451;-60
2022/11/16 13:44:20;;;;;;;2.73;1.40;;;20.80;51.10;;;;;;5025704;28;20457;-59
2022/11/16 13:46:50;;;;;;;2.47;1.33;;;20.80;51.40;;;;;;5024523;28;20460;-59
2022/11/16 13:49:40;;;;;;;1.60;1.50;;;20.70;51.40;;;;;;5030030;28;20443;-59
2022/11/16 13:52:11;;;;;;;1.87;1.40;;;20.70;51.50;;;;;;5022572;28;20460;-60
2022/11/16 13:54:43;;;;;;;1.60;1.50;;;20.70;52.00;;;;;;5030835;28;20487;-59
2022/11/16 13:57:24;;;;;;;4.40;1.67;;;20.60;52.20;;;;;;5026236;28;20498;-58
2022/11/16 13:59:59;;;;;;;1.80;1.70;;;20.60;53.20;;;;;;5024839;28;20451;-59